Time;durP1;ratioP1;P1;durP2;ratioP2;P2;SDS_P1;SDS_P2;PMS_P1;PMS_P2;Temp;Humidity;BMP_temperature;BMP_pressure;BME280_temperature;BME280_humidity;BME280_pressure;Samples;Min_cycle;Max_cycle;Signal;HPM_P1;HPM_P2
2022/03/19 00:00:45;;;;;;;3.80;3.00;;;;;;;6.71;57.10;104421.28;4962260;28;96930;-84
2022/03/19 00:03:10;;;;;;;6.93;2.60;;;;;;;6.72;57.21;104427.56;4965568;28;97040;-84
2022/03/19 00:05:36;;;;;;;3.47;2.20;;;;;;;6.70;57.04;104408.00;4963600;28;97311;-84
2022/03/19 00:08:02;;;;;;;2.70;2.50;;;;;;;6.67;57.12;104425.16;4955907;28;96987;-84
2022/03/19 00:10:27;;;;;;;9.13;4.00;;;;;;;6.58;57.04;104432.84;4960411;28;97176;-84
2022/03/19 00:12:54;;;;;;;8.40;3.73;;;;;;;6.53;57.27;104419.50;4965722;28;97246;-85
2022/03/19 00:15:19;;;;;;;8.93;4.03;;;;;;;6.51;57.13;104419.09;4966184;28;98422;-84
2022/03/19 00:17:45;;;;;;;11.73;3.97;;;;;;;6.46;57.24;104433.09;4965395;28;97306;-83
2022/03/19 00:20:11;;;;;;;6.80;3.83;;;;;;;6.46;57.35;104435.84;4960014;28;98237;-84
2022/03/19 00:22:38;;;;;;;8.90;4.40;;;;;;;6.31;57.32;104429.38;4963973;28;97119;-84
2022/03/19 00:25:04;;;;;;;10.13;3.43;;;;;;;6.30;57.76;104416.06;4962473;28;96954;-84
2022/03/19 00:27:29;;;;;;;4.70;2.70;;;;;;;6.29;57.48;104425.44;4966722;28;98766;-84
2022/03/19 00:29:55;;;;;;;4.40;2.70;;;;;;;6.26;57.58;104420.72;4965974;28;97630;-84
2022/03/19 00:32:20;;;;;;;2.80;1.83;;;;;;;6.22;57.53;104414.41;4962247;28;97509;-85
2022/03/19 00:34:46;;;;;;;5.17;2.17;;;;;;;6.19;57.49;104404.19;4963825;28;99466;-84
2022/03/19 00:37:11;;;;;;;3.53;2.07;;;;;;;6.15;57.29;104408.84;4963233;28;97388;-84
2022/03/19 00:39:37;;;;;;;5.80;2.30;;;;;;;6.07;57.46;104425.13;4965680;28;97190;-85
2022/03/19 00:42:02;;;;;;;5.40;3.03;;;;;;;6.02;57.60;104405.53;4979278;28;97566;-84
2022/03/19 00:44:28;;;;;;;3.87;3.10;;;;;;;5.99;57.61;104412.53;4983039;28;102878;-84
2022/03/19 00:46:53;;;;;;;3.00;2.40;;;;;;;6.01;57.48;104423.09;4983064;28;97368;-85
2022/03/19 00:49:19;;;;;;;8.43;2.70;;;;;;;5.97;57.60;104414.84;4973587;28;96757;-85
2022/03/19 00:51:44;;;;;;;3.50;2.33;;;;;;;5.86;57.36;104416.63;4964245;28;98274;-84
2022/03/19 00:54:11;;;;;;;5.10;2.50;;;;;;;5.78;57.47;104428.59;4962344;28;97859;-84
2022/03/19 00:56:37;;;;;;;4.87;2.93;;;;;;;5.70;57.67;104424.16;4961927;28;98515;-83
2022/03/19 00:59:02;;;;;;;7.60;2.60;;;;;;;5.65;57.91;104426.41;4964576;28;96659;-84
2022/03/19 01:01:28;;;;;;;2.50;1.97;;;;;;;5.57;57.93;104447.34;4965530;28;97091;-84
2022/03/19 01:03:54;;;;;;;3.60;2.60;;;;;;;5.59;57.77;104414.97;4963699;28;99497;-84
2022/03/19 01:06:19;;;;;;;3.43;1.83;;;;;;;5.56;57.71;104410.28;4965244;28;97630;-84
2022/03/19 01:08:45;;;;;;;7.63;2.13;;;;;;;5.49;57.87;104407.41;4962096;28;97990;-84
2022/03/19 01:11:10;;;;;;;6.03;2.77;;;;;;;5.38;57.99;104419.31;4963875;28;97378;-84
2022/03/19 01:13:36;;;;;;;2.53;1.93;;;;;;;5.29;58.05;104419.56;4964025;28;98804;-83
2022/03/19 01:16:02;;;;;;;6.30;2.33;;;;;;;5.21;57.62;104426.84;4963180;28;100598;-84
2022/03/19 01:18:28;;;;;;;6.20;2.60;;;;;;;5.16;57.89;104429.06;4971671;28;96874;-83
2022/03/19 01:20:54;;;;;;;5.63;2.90;;;;;;;5.10;57.95;104436.78;4963179;28;97097;-84
2022/03/19 01:23:19;;;;;;;6.63;2.80;;;;;;;5.02;58.30;104439.75;4962570;28;98794;-83
2022/03/19 01:25:44;;;;;;;11.60;2.77;;;;;;;5.05;57.79;104433.53;4961719;28;97725;-84
2022/03/19 01:28:10;;;;;;;5.57;2.73;;;;;;;5.04;58.08;104446.41;4965128;28;97068;-84
2022/03/19 01:30:35;;;;;;;3.77;3.00;;;;;;;5.00;57.76;104450.22;4962208;28;96846;-84
2022/03/19 01:33:00;;;;;;;5.60;2.60;;;;;;;4.90;58.07;104428.97;4961266;28;99795;-84
2022/03/19 01:35:26;;;;;;;4.23;2.47;;;;;;;4.90;58.05;104432.47;4960630;28;97396;-84
2022/03/19 01:37:51;;;;;;;7.57;2.77;;;;;;;4.87;58.08;104433.19;4965292;28;97196;-84
2022/03/19 01:40:18;;;;;;;4.13;2.63;;;;;;;4.85;58.13;104429.28;4964373;28;96931;-84
2022/03/19 01:42:46;;;;;;;4.40;2.33;;;;;;;4.82;58.03;104432.72;4963077;28;98477;-84
2022/03/19 01:45:20;;;;;;;6.37;2.30;;;;;;;4.78;58.18;104424.47;4961082;28;96940;-84
2022/03/19 01:47:47;;;;;;;3.10;2.40;;;;;;;4.72;58.35;104425.88;4965783;28;97497;-84
2022/03/19 01:50:13;;;;;;;4.57;2.30;;;;;;;4.66;58.04;104426.53;4967685;28;96859;-85
2022/03/19 01:52:40;;;;;;;4.53;2.20;;;;;;;4.58;58.23;104433.78;4964107;28;97302;-84
2022/03/19 01:55:07;;;;;;;5.10;2.50;;;;;;;4.53;58.30;104421.22;4966793;28;98227;-84
2022/03/19 01:57:38;;;;;;;3.53;2.37;;;;;;;4.49;58.31;104423.09;4965500;28;97418;-84
2022/03/19 02:00:06;;;;;;;4.37;2.50;;;;;;;4.42;58.33;104417.50;4963845;28;96960;-84
2022/03/19 02:02:31;;;;;;;3.57;2.30;;;;;;;4.36;58.66;104418.94;4963414;28;100684;-83
2022/03/19 02:04:59;;;;;;;2.83;2.10;;;;;;;4.40;58.32;104440.81;4968699;28;98741;-84
2022/03/19 02:07:24;;;;;;;4.20;1.90;;;;;;;4.38;58.28;104429.47;4966210;28;96944;-84
2022/03/19 02:09:50;;;;;;;3.03;2.13;;;;;;;4.38;58.55;104413.09;4964867;28;96982;-83
2022/03/19 02:12:16;;;;;;;4.13;1.87;;;;;;;4.37;58.43;104415.03;4976370;28;99952;-83
2022/03/19 02:14:41;;;;;;;3.43;2.13;;;;;;;4.42;58.10;104403.84;4966218;28;97037;-84
2022/03/19 02:17:09;;;;;;;3.70;1.97;;;;;;;4.42;58.24;104406.59;4963036;28;97244;-84
2022/03/19 02:19:51;;;;;;;3.33;2.30;;;;;;;4.40;58.48;104410.81;4967721;28;97286;-83
2022/03/19 02:22:18;;;;;;;5.47;2.17;;;;;;;4.36;58.17;104405.28;4964400;28;103944;-84
2022/03/19 02:27:31;;;;;;;4.30;2.03;;;;;;;4.35;58.52;104411.88;4966197;28;98113;-84
2022/03/19 02:29:57;;;;;;;5.10;1.77;;;;;;;4.34;58.37;104398.63;4966156;28;97010;-84
2022/03/19 02:32:23;;;;;;;2.90;1.77;;;;;;;4.36;58.40;104401.78;4967256;28;99165;-84
2022/03/19 02:34:48;;;;;;;4.73;2.40;;;;;;;4.36;58.31;104397.13;4965238;28;97057;-84
2022/03/19 02:37:14;;;;;;;8.63;1.60;;;;;;;4.34;58.23;104404.06;4961336;28;96928;-84
2022/03/19 02:39:39;;;;;;;4.93;2.20;;;;;;;4.32;58.29;104418.06;4965512;28;97580;-84
2022/03/19 02:42:07;;;;;;;5.83;2.63;;;;;;;4.26;58.18;104415.97;4967515;28;97478;-84
2022/03/19 02:44:34;;;;;;;8.57;1.90;;;;;;;4.21;58.67;104405.34;4963700;28;98545;-84
2022/03/19 02:47:02;;;;;;;3.07;2.33;;;;;;;4.15;58.46;104407.53;4961634;28;97019;-84
2022/03/19 02:49:28;;;;;;;8.90;2.57;;;;;;;4.11;58.46;104398.50;4964024;28;98224;-83
2022/03/19 02:51:54;;;;;;;4.30;1.90;;;;;;;4.10;58.54;104398.88;4964472;28;98837;-83
2022/03/19 02:54:22;;;;;;;2.80;1.80;;;;;;;4.11;58.70;104397.72;4964547;28;97406;-84
2022/03/19 02:56:49;;;;;;;2.50;2.07;;;;;;;4.11;58.47;104395.78;4962699;28;97048;-83
2022/03/19 02:59:22;;;;;;;2.03;1.80;;;;;;;4.11;58.56;104390.31;4966177;28;96910;-83
2022/03/19 03:01:49;;;;;;;4.73;1.77;;;;;;;4.08;58.48;104393.00;4963477;28;98886;-84
2022/03/19 03:04:15;;;;;;;1.77;1.67;;;;;;;4.04;58.57;104397.56;4963757;28;98314;-83
2022/03/19 03:06:42;;;;;;;4.67;2.10;;;;;;;4.06;58.66;104398.00;4963088;28;96956;-83
2022/03/19 03:09:09;;;;;;;4.50;2.30;;;;;;;4.06;58.70;104404.25;4963899;28;97192;-84
2022/03/19 03:11:38;;;;;;;3.43;2.03;;;;;;;4.05;58.48;104391.75;4963692;28;97913;-84
2022/03/19 03:14:06;;;;;;;3.33;2.07;;;;;;;4.03;58.58;104398.69;4965983;28;99343;-83
2022/03/19 03:16:32;;;;;;;1.63;1.53;;;;;;;4.00;58.54;104389.31;4964744;28;97091;-83
2022/03/19 03:19:03;;;;;;;4.03;1.90;;;;;;;4.05;58.73;104397.22;4961579;28;96971;-84
2022/03/19 03:21:28;;;;;;;2.70;1.63;;;;;;;4.01;58.50;104390.91;4961796;28;101766;-84
2022/03/19 03:23:55;;;;;;;3.40;1.63;;;;;;;3.98;58.80;104390.78;4969439;28;97153;-83
2022/03/19 03:26:21;;;;;;;3.63;1.43;;;;;;;3.97;58.81;104400.13;4964086;28;96949;-84
2022/03/19 03:28:46;;;;;;;7.07;1.70;;;;;;;3.93;58.85;104400.06;4966435;28;97747;-83
2022/03/19 03:31:12;;;;;;;2.10;1.90;;;;;;;3.92;58.72;104392.22;4962481;28;97360;-84
2022/03/19 03:33:37;;;;;;;3.23;1.47;;;;;;;3.92;58.68;104386.78;4965509;28;96916;-83
2022/03/19 03:36:03;;;;;;;3.17;2.00;;;;;;;3.91;58.72;104387.94;4964897;28;97500;-84
2022/03/19 03:38:29;;;;;;;2.60;2.03;;;;;;;3.87;58.66;104406.13;4962542;28;96946;-83
2022/03/19 03:40:54;;;;;;;2.63;1.77;;;;;;;3.80;58.76;104379.50;4966488;28;96966;-83
2022/03/19 03:43:20;;;;;;;2.80;1.57;;;;;;;3.76;58.72;104393.03;4962366;28;99524;-84
2022/03/19 03:45:45;;;;;;;3.97;2.23;;;;;;;3.73;59.06;104393.75;4970997;28;96737;-84
2022/03/19 03:48:11;;;;;;;2.63;1.70;;;;;;;3.66;58.89;104395.53;4963710;28;97120;-83
2022/03/19 03:50:37;;;;;;;2.83;2.17;;;;;;;3.64;58.87;104389.63;4964284;28;99788;-83
2022/03/19 03:53:04;;;;;;;2.60;2.07;;;;;;;3.64;59.10;104392.38;4963767;28;98166;-84
2022/03/19 03:55:31;;;;;;;2.87;2.07;;;;;;;3.62;58.87;104384.56;4980092;28;96766;-83
2022/03/19 03:57:57;;;;;;;6.70;1.87;;;;;;;3.56;59.19;104404.22;4963758;28;98639;-84
2022/03/19 04:00:22;;;;;;;5.50;2.20;;;;;;;3.46;59.26;104396.56;4982110;28;98920;-85
2022/03/19 04:02:48;;;;;;;6.40;2.20;;;;;;;3.45;59.29;104397.72;4961169;28;97421;-84
2022/03/19 04:05:13;;;;;;;7.07;2.23;;;;;;;3.41;59.05;104407.72;4965470;28;97407;-84
2022/03/19 04:07:39;;;;;;;8.13;2.30;;;;;;;3.38;59.37;104400.28;4964219;28;97208;-84
2022/03/19 04:10:05;;;;;;;3.73;2.10;;;;;;;3.35;59.52;104396.31;4964019;28;97571;-83
2022/03/19 04:12:31;;;;;;;4.80;2.20;;;;;;;3.32;59.34;104401.69;4965761;28;97702;-84
2022/03/19 04:14:56;;;;;;;4.80;2.13;;;;;;;3.27;59.44;104407.38;4965322;28;97273;-83
2022/03/19 04:17:21;;;;;;;6.60;2.07;;;;;;;3.26;59.40;104400.34;4962658;28;96868;-84
2022/03/19 04:19:47;;;;;;;3.90;2.03;;;;;;;3.25;59.44;104423.25;4966340;28;96906;-84
2022/03/19 04:22:12;;;;;;;4.00;2.50;;;;;;;3.22;59.73;104399.47;4961994;28;99499;-84
2022/03/19 04:24:38;;;;;;;5.50;2.33;;;;;;;3.14;59.61;104384.09;4960325;28;97212;-83
2022/03/19 04:27:04;;;;;;;4.30;2.33;;;;;;;3.19;59.37;104400.94;4961896;28;97258;-84
2022/03/19 04:29:29;;;;;;;4.70;1.93;;;;;;;3.13;59.26;104405.06;4963466;28;98006;-83
2022/03/19 04:31:54;;;;;;;2.70;2.00;;;;;;;3.13;59.61;104387.94;4962510;28;97705;-84
2022/03/19 04:34:20;;;;;;;3.50;2.30;;;;;;;3.12;59.41;104383.66;4965752;28;96907;-84
2022/03/19 04:36:45;;;;;;;3.47;2.10;;;;;;;3.10;59.67;104378.56;4962735;28;97048;-83
2022/03/19 04:39:11;;;;;;;4.63;2.20;;;;;;;3.03;59.38;104400.94;4968730;28;98864;-84
2022/03/19 04:41:37;;;;;;;7.53;2.30;;;;;;;3.04;59.63;104386.19;4979313;28;97345;-83
2022/03/19 04:44:07;;;;;;;12.40;2.97;;;;;;;3.04;59.44;104382.66;4962397;28;96805;-83
2022/03/19 04:46:33;;;;;;;4.97;1.93;;;;;;;3.03;59.52;104384.63;4963516;28;96919;-84
2022/03/19 04:48:59;;;;;;;3.60;1.87;;;;;;;3.07;59.51;104394.78;4956475;28;99537;-81
2022/03/19 04:51:37;;;;;;;1.60;1.50;;;;;;;3.11;60.03;104387.50;4962907;28;98080;-82
2022/03/19 04:54:04;;;;;;;3.77;2.13;;;;;;;3.06;59.53;104399.44;4962298;28;96983;-81
2022/03/19 04:56:30;;;;;;;3.07;2.10;;;;;;;3.02;59.60;104382.22;4965689;28;97107;-82
2022/03/19 04:58:57;;;;;;;2.87;2.23;;;;;;;2.96;59.81;104392.59;4963214;28;98627;-80
2022/03/19 05:01:27;;;;;;;5.80;2.00;;;;;;;2.93;59.85;104393.28;4965953;28;100500;-80
2022/03/19 05:03:52;;;;;;;4.70;1.93;;;;;;;2.93;59.68;104390.56;4956498;28;96829;-81
2022/03/19 05:06:19;;;;;;;3.83;1.93;;;;;;;2.96;59.67;104389.88;4945439;28;97369;-81
2022/03/19 05:08:45;;;;;;;3.90;1.93;;;;;;;2.96;59.61;104387.16;4961235;28;96868;-82
2022/03/19 05:11:13;;;;;;;2.57;2.37;;;;;;;2.94;59.96;104408.47;4963147;28;97361;-82
2022/03/19 05:13:48;;;;;;;3.73;1.97;;;;;;;2.96;59.72;104394.50;4958981;28;96855;-84
2022/03/19 05:16:14;;;;;;;3.20;1.60;;;;;;;2.91;59.84;104392.84;4963776;28;97219;-81
2022/03/19 05:18:40;;;;;;;4.27;2.40;;;;;;;2.94;59.64;104392.16;4965503;28;98225;-82
2022/03/19 05:21:06;;;;;;;4.20;1.80;;;;;;;2.96;59.85;104379.00;4974490;28;96517;-82
2022/03/19 05:23:32;;;;;;;4.20;1.83;;;;;;;2.97;59.80;104379.78;4984072;28;97069;-82
2022/03/19 05:25:58;;;;;;;2.37;2.13;;;;;;;2.95;59.91;104382.84;4970105;28;96807;-82
2022/03/19 05:28:24;;;;;;;7.03;1.93;;;;;;;2.97;59.85;104391.44;4971437;28;97094;-82
2022/03/19 05:30:51;;;;;;;3.77;2.20;;;;;;;2.99;59.71;104391.09;4971880;28;99301;-83
2022/03/19 05:33:17;;;;;;;4.57;2.27;;;;;;;2.99;59.89;104383.72;4966625;28;97017;-82
2022/03/19 05:35:44;;;;;;;8.27;2.07;;;;;;;2.97;59.72;104375.13;4967218;28;97101;-82
2022/03/19 05:38:10;;;;;;;6.80;2.50;;;;;;;2.95;59.75;104374.69;4970148;28;98551;-83
2022/03/19 05:40:40;;;;;;;8.00;2.30;;;;;;;2.93;60.04;104385.13;4960262;28;97280;-84
2022/03/19 05:43:06;;;;;;;4.83;2.10;;;;;;;2.96;59.90;104389.88;4966768;28;96914;-84
2022/03/19 05:45:31;;;;;;;4.03;2.10;;;;;;;2.96;59.85;104399.94;4965067;28;96991;-80
2022/03/19 05:47:57;;;;;;;3.73;2.30;;;;;;;2.95;59.79;104380.13;4967884;28;97740;-82
2022/03/19 05:50:22;;;;;;;6.27;2.40;;;;;;;2.96;59.82;104394.50;4966006;28;98524;-82
2022/03/19 05:52:48;;;;;;;3.67;2.30;;;;;;;2.94;60.20;104392.16;4968477;28;97035;-82
2022/03/19 05:55:14;;;;;;;5.13;1.90;;;;;;;2.94;59.76;104375.81;4963158;28;96797;-82
2022/03/19 05:57:42;;;;;;;7.90;2.23;;;;;;;2.95;59.84;104371.97;4965946;28;102763;-82
2022/03/19 06:00:10;;;;;;;4.00;2.10;;;;;;;2.96;59.87;104376.28;4963715;28;99456;-83
2022/03/19 06:02:40;;;;;;;4.60;2.53;;;;;;;2.95;59.89;104377.41;4960355;28;96975;-82
2022/03/19 06:05:06;;;;;;;4.13;2.47;;;;;;;2.99;60.12;104375.56;4963813;28;96818;-82
2022/03/19 06:07:31;;;;;;;4.87;2.43;;;;;;;3.00;59.92;104379.88;4967962;28;96940;-83
2022/03/19 06:09:57;;;;;;;3.03;2.30;;;;;;;3.00;59.95;104377.16;4970061;28;99350;-82
2022/03/19 06:12:23;;;;;;;6.93;2.63;;;;;;;3.01;59.86;104375.22;4967446;28;97114;-83
2022/03/19 06:14:53;;;;;;;3.03;2.10;;;;;;;2.98;59.96;104371.28;4965914;28;97330;-82
2022/03/19 06:17:19;;;;;;;4.97;2.40;;;;;;;2.98;59.98;104395.75;4965014;28;98748;-83
2022/03/19 06:19:44;;;;;;;2.87;1.97;;;;;;;3.06;60.15;104376.91;4965065;28;98205;-82
2022/03/19 06:22:10;;;;;;;5.80;2.47;;;;;;;3.09;60.03;104371.53;4964722;28;96804;-83
2022/03/19 06:24:35;;;;;;;5.60;2.43;;;;;;;3.14;59.88;104373.22;4966445;28;96809;-82
2022/03/19 06:27:01;;;;;;;8.40;3.27;;;;;;;3.16;59.86;104369.00;4959209;28;98664;-83
2022/03/19 06:29:26;;;;;;;6.77;2.80;;;;;;;3.18;59.91;104371.38;4967868;28;97189;-83
2022/03/19 06:31:52;;;;;;;5.07;2.40;;;;;;;3.14;60.00;104371.28;4970811;28;96983;-83
2022/03/19 06:34:17;;;;;;;5.90;2.80;;;;;;;3.17;60.07;104388.84;4969163;28;97292;-83
2022/03/19 06:39:27;;;;;;;3.27;2.10;;;;;;;3.23;59.93;104371.13;4968570;28;101751;-83
2022/03/19 06:41:52;;;;;;;5.20;2.97;;;;;;;3.21;60.26;104365.25;4969056;28;97746;-83
2022/03/19 06:44:17;;;;;;;5.90;2.67;;;;;;;3.31;60.01;104376.38;4968624;28;97238;-83
2022/03/19 06:46:43;;;;;;;3.93;2.07;;;;;;;3.31;60.38;104378.31;4959104;28;97917;-83
2022/03/19 06:49:08;;;;;;;8.13;2.40;;;;;;;3.35;60.11;104376.47;4964575;28;96780;-82
2022/03/19 06:51:33;;;;;;;5.30;2.37;;;;;;;3.43;60.17;104367.34;4965969;28;97196;-83
2022/03/19 06:53:59;;;;;;;7.20;3.00;;;;;;;3.47;60.19;104376.38;4965659;28;97144;-82
2022/03/19 06:56:24;;;;;;;7.17;2.93;;;;;;;3.53;60.29;104359.44;4963983;28;96922;-83
2022/03/19 06:58:50;;;;;;;3.17;2.40;;;;;;;3.63;60.17;104374.44;4968118;28;97081;-83
2022/03/19 07:01:15;;;;;;;5.17;2.27;;;;;;;3.70;60.48;104380.84;4965844;28;97127;-82
2022/03/19 07:03:45;;;;;;;5.97;2.70;;;;;;;3.82;60.06;104366.34;4989103;28;96956;-82
2022/03/19 07:06:12;;;;;;;2.80;2.27;;;;;;;3.90;60.29;104373.50;4958649;28;103544;-82
2022/03/19 07:08:38;;;;;;;3.00;2.43;;;;;;;3.99;60.17;104371.38;4964711;28;97600;-82
2022/03/19 07:11:04;;;;;;;4.93;2.90;;;;;;;4.02;60.17;104370.66;4965364;28;97057;-82
2022/03/19 07:13:31;;;;;;;6.90;2.67;;;;;;;4.09;60.66;104370.03;4964954;28;96665;-82
2022/03/19 07:15:57;;;;;;;5.33;3.40;;;;;;;4.15;60.59;104363.16;4964518;28;99486;-82
2022/03/19 07:18:23;;;;;;;6.33;2.73;;;;;;;4.25;61.04;104357.16;4965499;28;99671;-82
2022/03/19 07:20:50;;;;;;;7.00;3.40;;;;;;;4.35;60.95;104353.84;4977672;28;96980;-82
2022/03/19 07:23:16;;;;;;;6.60;2.73;;;;;;;4.44;61.22;104359.88;4964524;28;96892;-82
2022/03/19 07:25:43;;;;;;;5.27;2.47;;;;;;;4.57;61.24;104344.94;4968765;28;96805;-82
2022/03/19 07:28:12;;;;;;;7.33;2.43;;;;;;;4.65;61.13;104375.88;4966565;28;96787;-82
2022/03/19 07:30:38;;;;;;;7.47;2.93;;;;;;;4.81;60.74;104371.91;4958260;28;96946;-82
2022/03/19 07:33:04;;;;;;;5.67;2.90;;;;;;;4.90;61.57;104367.00;4985552;28;97430;-82
2022/03/19 07:35:29;;;;;;;6.00;3.07;;;;;;;5.04;61.00;104350.09;4961718;28;97814;-82
2022/03/19 07:37:57;;;;;;;4.70;3.10;;;;;;;5.14;61.15;104346.75;4964062;28;96809;-83
2022/03/19 07:43:09;;;;;;;4.10;2.73;;;;;;;5.43;60.96;104340.63;4966593;28;96892;-85
2022/03/19 07:45:36;;;;;;;8.67;2.90;;;;;;;5.54;61.79;104341.56;4967271;28;98114;-81
2022/03/19 07:48:01;;;;;;;9.70;3.07;;;;;;;5.76;61.09;104348.13;4965840;28;97625;-81
2022/03/19 07:50:27;;;;;;;9.03;3.37;;;;;;;5.94;60.75;104347.25;4967303;28;96727;-81
2022/03/19 07:52:53;;;;;;;6.20;3.07;;;;;;;6.10;60.52;104347.06;4964528;28;97160;-82
2022/03/19 07:55:19;;;;;;;5.70;2.80;;;;;;;6.26;61.05;104349.59;4962436;28;97019;-82
2022/03/19 07:57:44;;;;;;;7.33;2.57;;;;;;;6.44;60.30;104370.56;4962303;28;96959;-82
2022/03/19 08:00:12;;;;;;;7.63;2.60;;;;;;;6.55;60.04;104341.34;4985514;28;97186;-82
2022/03/19 08:02:38;;;;;;;6.47;2.90;;;;;;;6.67;60.11;104340.31;4967053;28;97004;-82
2022/03/19 08:05:04;;;;;;;7.97;2.60;;;;;;;6.78;60.42;104333.78;4963803;28;102450;-84
2022/03/19 08:07:30;;;;;;;13.20;2.43;;;;;;;6.92;59.79;104344.09;4960790;28;99405;-83
2022/03/19 08:09:56;;;;;;;7.10;2.43;;;;;;;7.05;59.88;104333.66;4966749;28;96787;-82
2022/03/19 08:12:21;;;;;;;6.27;2.43;;;;;;;7.20;59.90;104338.88;4963830;28;96885;-82
2022/03/19 08:14:48;;;;;;;12.00;2.97;;;;;;;7.35;59.46;104334.28;4965471;28;98610;-82
2022/03/19 08:17:14;;;;;;;8.80;2.77;;;;;;;7.40;59.53;104331.97;4963658;28;98619;-82
2022/03/19 08:19:41;;;;;;;11.67;3.07;;;;;;;7.51;59.28;104338.31;4962025;28;97514;-82
2022/03/19 08:22:08;;;;;;;10.80;2.27;;;;;;;7.58;59.39;104360.28;4946224;28;96719;-83
2022/03/19 08:24:35;;;;;;;4.70;2.00;;;;;;;7.60;59.02;104321.53;4966549;28;96760;-83
2022/03/19 08:27:01;;;;;;;5.70;2.43;;;;;;;7.81;58.93;104337.34;4948314;28;98596;-82
2022/03/19 08:29:27;;;;;;;7.57;2.37;;;;;;;7.95;58.88;104343.66;4965952;28;96920;-82
2022/03/19 08:31:53;;;;;;;6.23;1.70;;;;;;;8.04;58.98;104329.59;4964255;28;96842;-82
2022/03/19 08:34:20;;;;;;;6.87;2.10;;;;;;;8.21;58.70;104337.16;4956935;28;98083;-82
2022/03/19 08:36:45;;;;;;;4.47;1.73;;;;;;;8.32;58.66;104348.19;4953182;28;98040;-84
2022/03/19 08:41:55;;;;;;;6.27;1.80;;;;;;;8.58;58.03;104345.94;4964084;28;96577;-83
2022/03/19 08:44:21;;;;;;;4.03;1.87;;;;;;;8.70;57.24;104326.34;4967777;28;99388;-81
2022/03/19 08:46:47;;;;;;;4.47;2.10;;;;;;;8.99;57.78;104340.91;4950458;28;102250;-82
2022/03/19 08:49:12;;;;;;;7.63;1.80;;;;;;;9.16;57.11;104320.09;4962826;28;96747;-81
2022/03/19 08:51:41;;;;;;;3.60;2.13;;;;;;;9.42;56.68;104330.69;4949975;28;97051;-83
2022/03/19 08:54:16;;;;;;;4.87;2.00;;;;;;;9.68;55.85;104325.53;4961247;28;96823;-81
2022/03/19 08:56:43;;;;;;;4.80;1.67;;;;;;;9.97;56.38;104325.44;4957482;28;96908;-82
2022/03/19 08:59:09;;;;;;;4.30;1.57;;;;;;;10.20;56.39;104323.81;4959480;28;96954;-83
2022/03/19 09:01:36;;;;;;;8.33;1.57;;;;;;;10.52;56.16;104323.66;4964128;28;97096;-83
2022/03/19 09:04:01;;;;;;;7.93;2.10;;;;;;;10.79;55.76;104349.44;4963479;28;98104;-82
2022/03/19 09:06:27;;;;;;;2.70;1.40;;;;;;;10.95;54.85;104324.13;4961573;28;96981;-81
2022/03/19 09:08:52;;;;;;;4.00;1.40;;;;;;;10.87;54.17;104322.63;4964120;28;97215;-82
2022/03/19 09:11:19;;;;;;;3.90;1.87;;;;;;;11.13;55.12;104333.84;4964714;28;97535;-83
2022/03/19 09:13:47;;;;;;;6.50;1.60;;;;;;;11.41;54.63;104330.03;4965729;28;97828;-82
2022/03/19 09:16:13;;;;;;;6.35;2.40;;;;;;;11.81;53.31;104317.44;4965600;28;97325;-83
2022/03/19 09:18:38;;;;;;;7.23;1.90;;;;;;;11.89;53.08;104314.19;4961435;28;97513;-83
2022/03/19 09:21:04;;;;;;;2.60;1.60;;;;;;;11.94;53.42;104313.75;4965619;28;97011;-82
2022/03/19 09:23:29;;;;;;;7.00;1.53;;;;;;;12.02;52.56;104312.44;4979057;28;96797;-81
2022/03/19 09:25:55;;;;;;;3.80;1.63;;;;;;;12.00;52.99;104314.84;4977564;28;97048;-81
2022/03/19 09:28:21;;;;;;;3.50;1.30;;;;;;;12.01;52.55;104310.88;4979585;28;96529;-81
2022/03/19 09:30:46;;;;;;;3.07;1.30;;;;;;;12.00;52.51;104303.81;4972483;28;96950;-80
2022/03/19 09:33:12;;;;;;;3.30;1.73;;;;;;;12.08;52.73;104315.53;4978488;28;98641;-83
2022/03/19 09:35:38;;;;;;;4.60;1.73;;;;;;;12.10;52.90;104298.56;4975539;28;96832;-81
2022/03/19 09:38:03;;;;;;;3.67;1.17;;;;;;;12.26;53.13;104296.75;4967188;28;96905;-81
2022/03/19 09:40:29;;;;;;;2.80;1.53;;;;;;;12.32;52.43;104300.63;4967354;28;96981;-83
2022/03/19 09:42:59;;;;;;;6.10;2.00;;;;;;;12.33;51.80;104284.84;4966192;28;97551;-81
2022/03/19 09:45:28;;;;;;;3.57;1.73;;;;;;;12.36;51.92;104300.59;4963072;28;98563;-83
2022/03/19 09:47:55;;;;;;;3.67;1.60;;;;;;;12.41;52.65;104302.84;4967865;28;96792;-82
2022/03/19 09:50:23;;;;;;;4.23;1.70;;;;;;;12.42;52.07;104291.41;4961205;28;97974;-84
2022/03/19 09:52:54;;;;;;;2.90;1.37;;;;;;;12.45;50.70;104281.50;4977049;28;97474;-82
2022/03/19 09:55:20;;;;;;;1.40;1.13;;;;;;;12.47;52.23;104279.13;4963699;28;97771;-83
2022/03/19 09:57:46;;;;;;;3.50;1.57;;;;;;;12.41;51.71;104283.53;4958757;28;97122;-82
2022/03/19 10:00:13;;;;;;;5.80;1.80;;;;;;;12.40;51.69;104279.22;4958926;28;97022;-81
2022/03/19 10:02:57;;;;;;;4.10;1.30;;;;;;;12.36;49.70;104267.44;4965292;28;96715;-81
2022/03/19 10:10:54;;;;;;;1.90;1.23;;;;;;;12.62;50.90;104269.41;4967543;28;96850;-83
2022/03/19 10:13:19;;;;;;;2.50;1.00;;;;;;;12.67;51.35;104255.88;4964529;28;99737;-82
2022/03/19 10:15:46;;;;;;;2.77;1.20;;;;;;;12.73;51.56;104265.25;4966093;28;97603;-81
2022/03/19 10:18:11;;;;;;;3.83;1.60;;;;;;;12.68;50.85;104257.47;4957878;28;97275;-82
2022/03/19 10:20:37;;;;;;;3.20;1.00;;;;;;;12.69;50.83;104249.94;4964916;28;96959;-81
2022/03/19 10:23:04;;;;;;;3.37;1.30;;;;;;;12.69;50.50;104247.16;4966732;28;97982;-81
2022/03/19 10:25:30;;;;;;;4.77;1.30;;;;;;;12.72;50.89;104240.81;4967371;28;96973;-82
2022/03/19 10:28:11;;;;;;;3.80;1.33;;;;;;;12.82;48.23;104239.09;4966441;28;97160;-81
2022/03/19 10:30:41;;;;;;;1.60;1.17;;;;;;;12.95;50.73;104242.81;4961820;28;96821;-81
2022/03/19 10:33:10;;;;;;;2.33;1.00;;;;;;;13.01;50.16;104232.81;4963005;28;97154;-80
2022/03/19 10:35:39;;;;;;;2.03;0.80;;;;;;;12.98;50.18;104223.38;4964843;28;96996;-81
2022/03/19 10:38:22;;;;;;;3.80;1.00;;;;;;;13.02;44.63;104232.41;4961028;28;97032;-81
2022/03/19 10:40:51;;;;;;;2.13;0.80;;;;;;;13.02;49.27;104215.81;4959821;28;97102;-83
2022/03/19 10:43:23;;;;;;;3.07;1.23;;;;;;;13.05;49.14;104215.00;4963891;28;98200;-82
2022/03/19 10:45:50;;;;;;;3.30;1.50;;;;;;;13.19;50.38;104214.72;4965495;28;98759;-83
2022/03/19 10:48:24;;;;;;;2.10;1.13;;;;;;;13.27;46.79;104210.63;4961063;28;97252;-82
2022/03/19 10:50:52;;;;;;;5.90;1.40;;;;;;;13.25;48.64;104198.44;4974427;28;97330;-86
2022/03/19 10:53:19;;;;;;;1.93;1.20;;;;;;;13.23;48.79;104204.41;4966844;28;97538;-82
2022/03/19 10:55:45;;;;;;;2.20;1.10;;;;;;;13.29;48.49;104213.75;4967571;28;97284;-83
2022/03/19 10:58:11;;;;;;;3.70;1.20;;;;;;;13.37;48.26;104200.56;4964597;28;96989;-81
2022/03/19 11:00:37;;;;;;;4.40;1.10;;;;;;;13.36;47.28;104199.00;4965437;28;97160;-83
2022/03/19 11:03:17;;;;;;;5.03;1.10;;;;;;;13.37;44.03;104190.28;4957952;28;96966;-86
2022/03/19 11:05:45;;;;;;;5.03;1.00;;;;;;;13.45;46.52;104179.84;4965826;28;98232;-83
2022/03/19 11:08:12;;;;;;;5.47;0.90;;;;;;;13.45;46.32;104188.91;4956879;28;96768;-81
2022/03/19 11:10:39;;;;;;;3.40;1.00;;;;;;;13.58;46.66;104179.97;4965497;28;96869;-84
2022/03/19 11:13:06;;;;;;;8.43;1.53;;;;;;;13.82;47.25;104167.59;4965576;28;97741;-81
2022/03/19 11:15:35;;;;;;;1.50;0.90;;;;;;;14.07;46.81;104173.34;4963820;28;98116;-82
2022/03/19 11:18:05;;;;;;;1.03;0.60;;;;;;;14.39;46.16;104172.63;4964480;28;97038;-83
2022/03/19 11:20:31;;;;;;;4.90;0.87;;;;;;;14.58;45.72;104161.44;4965372;28;96892;-83
2022/03/19 11:22:59;;;;;;;2.23;0.73;;;;;;;14.71;44.37;104153.19;4965565;28;96977;-84
2022/03/19 11:25:27;;;;;;;3.77;1.00;;;;;;;14.89;44.44;104139.63;4964683;28;99920;-83
2022/03/19 11:28:01;;;;;;;4.20;0.70;;;;;;;15.13;44.12;104145.69;4961304;28;96968;-84
2022/03/19 11:30:34;;;;;;;2.17;0.90;;;;;;;15.48;45.16;104147.47;4963751;28;96880;-83
2022/03/19 11:33:04;;;;;;;2.13;0.90;;;;;;;15.45;43.89;104148.34;4962215;28;97590;-83
2022/03/19 11:35:31;;;;;;;2.43;0.80;;;;;;;15.70;44.77;104134.50;4953123;28;97744;-84
2022/03/19 11:38:01;;;;;;;3.23;0.83;;;;;;;15.99;44.76;104132.38;4964292;28;96956;-81
2022/03/19 11:40:29;;;;;;;2.80;1.10;;;;;;;16.32;43.40;104125.34;4979351;28;96921;-83
2022/03/19 11:42:55;;;;;;;1.30;0.60;;;;;;;16.42;43.20;104123.44;4962272;28;98449;-82
2022/03/19 11:45:21;;;;;;;4.10;0.80;;;;;;;16.17;41.17;104127.03;4966300;28;98142;-82